Time;durP1;ratioP1;P1;durP2;ratioP2;P2;SDS_P1;SDS_P2;PMS_P1;PMS_P2;Temp;Humidity;BMP_temperature;BMP_pressure;BME280_temperature;BME280_humidity;BME280_pressure;Samples;Min_cycle;Max_cycle;Signal;HPM_P1;HPM_P2
2022/04/14 00:00:28;;;;;;;18.92;13.52;;;;;;;;;;755940;184;1020534;-62
2022/04/14 00:02:54;;;;;;;21.23;13.47;;;;;;;;;;756773;184;902929;-62
2022/04/14 00:05:19;;;;;;;18.80;13.70;;;;;;;;;;750359;184;919008;-61
2022/04/14 00:07:45;;;;;;;17.27;12.63;;;;;;;;;;735420;189;919447;-61
2022/04/14 00:10:11;;;;;;;17.17;12.73;;;;;;;;;;726829;186;918779;-61
2022/04/14 00:12:37;;;;;;;19.90;12.53;;;;;;;;;;758042;184;918528;-62
2022/04/14 00:15:04;;;;;;;21.80;14.00;;;;;;;;;;750004;183;923246;-62
2022/04/14 00:17:29;;;;;;;22.37;15.80;;;;;;;;;;759273;183;919566;-60
2022/04/14 00:19:55;;;;;;;17.40;13.63;;;;;;;;;;764259;183;918482;-60
2022/04/14 00:22:20;;;;;;;21.70;13.80;;;;;;;;;;760806;183;918634;-62
2022/04/14 00:24:46;;;;;;;21.97;13.57;;;;;;;;;;753443;183;919580;-62
2022/04/14 00:27:12;;;;;;;19.00;12.80;;;;;;;;;;754389;184;918537;-62
2022/04/14 00:29:38;;;;;;;20.80;13.90;;;;;;;;;;758388;184;1020703;-61
2022/04/14 00:32:04;;;;;;;18.67;14.17;;;;;;;;;;757568;184;919311;-62
2022/04/14 00:34:30;;;;;;;20.13;15.63;;;;;;;;;;749932;184;919248;-61
2022/04/14 00:36:56;;;;;;;21.87;17.15;;;;;;;;;;756919;184;919161;-61
2022/04/14 00:39:22;;;;;;;25.10;15.63;;;;;;;;;;753654;184;921018;-61
2022/04/14 00:41:48;;;;;;;23.80;14.47;;;;;;;;;;750238;184;918789;-62
2022/04/14 00:44:13;;;;;;;20.37;15.70;;;;;;;;;;758220;184;921066;-62
2022/04/14 00:46:39;;;;;;;20.77;14.53;;;;;;;;;;752554;183;918647;-61
2022/04/14 00:49:07;;;;;;;24.50;14.30;;;;;;;;;;755785;183;918522;-62
2022/04/14 00:51:33;;;;;;;23.60;15.98;;;;;;;;;;760001;184;919733;-60
2022/04/14 00:53:59;;;;;;;20.90;14.30;;;;;;;;;;757903;184;916327;-62
2022/04/14 00:56:25;;;;;;;24.40;14.90;;;;;;;;;;755472;183;921182;-62
2022/04/14 00:58:51;;;;;;;24.40;17.20;;;;;;;;;;753888;182;918831;-62
2022/04/14 01:01:17;;;;;;;24.60;16.90;;;;;;;;;;765867;182;915357;-62
2022/04/14 01:03:42;;;;;;;24.20;16.03;;;;;;;;;;758240;184;919274;-62
2022/04/14 01:06:09;;;;;;;20.97;15.33;;;;;;;;;;750390;184;919436;-61
2022/04/14 01:08:34;;;;;;;21.47;16.27;;;;;;;;;;760775;184;918607;-62
2022/04/14 01:11:00;;;;;;;20.70;15.30;;;;;;;;;;762750;183;918172;-60
2022/04/14 01:13:26;;;;;;;18.17;14.57;;;;;;;;;;760646;184;919223;-62
2022/04/14 01:15:52;;;;;;;20.83;15.90;;;;;;;;;;765119;184;919049;-63
2022/04/14 01:18:17;;;;;;;21.83;15.83;;;;;;;;;;749266;186;918932;-61
2022/04/14 01:20:43;;;;;;;20.77;16.10;;;;;;;;;;761801;183;1004884;-62
2022/04/14 01:23:09;;;;;;;20.60;16.33;;;;;;;;;;753160;184;920604;-62
2022/04/14 01:25:35;;;;;;;23.57;15.87;;;;;;;;;;758745;184;919048;-62
2022/04/14 01:28:01;;;;;;;19.40;15.43;;;;;;;;;;747704;184;920064;-61
2022/04/14 01:30:27;;;;;;;23.03;16.43;;;;;;;;;;759310;183;919680;-63
2022/04/14 01:32:53;;;;;;;19.67;15.10;;;;;;;;;;760347;184;917756;-62
2022/04/14 01:35:18;;;;;;;22.67;16.83;;;;;;;;;;752855;184;918683;-61
2022/04/14 01:37:44;;;;;;;22.70;15.17;;;;;;;;;;755869;184;927749;-61
2022/04/14 01:40:11;;;;;;;22.17;15.97;;;;;;;;;;760200;185;920424;-62
2022/04/14 01:42:36;;;;;;;27.77;16.03;;;;;;;;;;754004;184;915624;-61
2022/04/14 01:45:03;;;;;;;22.23;16.90;;;;;;;;;;754169;185;915075;-62
2022/04/14 01:47:28;;;;;;;22.57;16.70;;;;;;;;;;758416;184;918019;-62
2022/04/14 01:49:54;;;;;;;21.70;17.30;;;;;;;;;;739550;188;918600;-62
2022/04/14 01:52:20;;;;;;;18.90;14.93;;;;;;;;;;737146;189;919506;-61
2022/04/14 01:54:46;;;;;;;29.90;16.03;;;;;;;;;;740513;187;937137;-62
2022/04/14 01:57:12;;;;;;;25.80;16.43;;;;;;;;;;753070;184;919414;-62
2022/04/14 01:59:37;;;;;;;18.80;15.30;;;;;;;;;;753733;183;918733;-62
2022/04/14 02:02:03;;;;;;;25.77;17.97;;;;;;;;;;751642;183;919039;-62
2022/04/14 02:04:29;;;;;;;22.10;15.63;;;;;;;;;;754176;185;919878;-63
2022/04/14 02:06:55;;;;;;;25.10;17.43;;;;;;;;;;756653;184;919632;-64
2022/04/14 02:09:21;;;;;;;21.00;16.10;;;;;;;;;;761416;182;919021;-65
2022/04/14 02:11:47;;;;;;;20.20;15.40;;;;;;;;;;760018;184;918735;-63
2022/04/14 02:14:13;;;;;;;25.40;15.27;;;;;;;;;;754021;186;921557;-64
2022/04/14 02:16:38;;;;;;;23.20;16.37;;;;;;;;;;749838;185;921037;-65
2022/04/14 02:19:04;;;;;;;21.48;15.77;;;;;;;;;;759454;184;918691;-64
2022/04/14 02:21:30;;;;;;;24.87;16.13;;;;;;;;;;764499;184;913329;-64
2022/04/14 02:23:56;;;;;;;26.73;16.90;;;;;;;;;;748099;184;916373;-65
2022/04/14 02:26:22;;;;;;;28.17;17.57;;;;;;;;;;755182;183;911423;-64
2022/04/14 02:28:48;;;;;;;26.27;18.07;;;;;;;;;;761400;184;915401;-64
2022/04/14 02:31:14;;;;;;;25.33;16.80;;;;;;;;;;759087;184;918691;-64
2022/04/14 02:33:39;;;;;;;26.20;17.37;;;;;;;;;;760984;184;921963;-65
2022/04/14 02:36:05;;;;;;;28.70;18.80;;;;;;;;;;756108;184;935104;-64
2022/04/14 02:38:31;;;;;;;25.83;17.90;;;;;;;;;;753127;183;919228;-63
2022/04/14 02:40:57;;;;;;;26.80;18.47;;;;;;;;;;756716;184;919388;-64
2022/04/14 02:43:23;;;;;;;22.80;16.47;;;;;;;;;;750682;183;922310;-64
2022/04/14 02:45:49;;;;;;;24.57;16.40;;;;;;;;;;756128;183;918397;-63
2022/04/14 02:48:15;;;;;;;24.00;18.52;;;;;;;;;;753241;183;918790;-63
2022/04/14 02:50:43;;;;;;;28.70;18.10;;;;;;;;;;754121;184;1006365;-62
2022/04/14 02:53:06;;;;;;;30.33;17.37;;;;;;;;;;759227;184;915425;-63
2022/04/14 02:55:32;;;;;;;23.47;17.13;;;;;;;;;;758116;183;914008;-62
2022/04/14 02:57:58;;;;;;;21.53;16.30;;;;;;;;;;759446;183;915868;-62
2022/04/14 03:00:24;;;;;;;25.50;15.33;;;;;;;;;;763677;183;912232;-64
2022/04/14 03:02:50;;;;;;;24.10;16.73;;;;;;;;;;754948;184;915872;-62
2022/04/14 03:05:16;;;;;;;20.80;15.90;;;;;;;;;;759169;183;1108505;-64
2022/04/14 03:07:42;;;;;;;23.50;16.83;;;;;;;;;;751233;183;923768;-63
2022/04/14 03:10:08;;;;;;;25.50;16.70;;;;;;;;;;740659;188;918928;-64
2022/04/14 03:12:40;;;;;;;20.27;16.03;;;;;;;;;;743324;187;918892;-63
2022/04/14 03:15:06;;;;;;;27.30;17.47;;;;;;;;;;754490;184;917051;-63
2022/04/14 03:17:31;;;;;;;24.50;16.70;;;;;;;;;;757584;184;918707;-62
2022/04/14 03:19:57;;;;;;;21.07;17.40;;;;;;;;;;753524;183;1022371;-62
2022/04/14 03:22:23;;;;;;;23.77;16.87;;;;;;;;;;760675;182;918758;-64
2022/04/14 03:24:49;;;;;;;21.55;15.73;;;;;;;;;;756419;182;919428;-64
2022/04/14 03:27:15;;;;;;;24.23;16.73;;;;;;;;;;753002;186;918539;-64
2022/04/14 03:29:41;;;;;;;21.43;16.13;;;;;;;;;;761076;182;920549;-64
2022/04/14 03:32:07;;;;;;;23.50;16.77;;;;;;;;;;757688;183;919282;-63
2022/04/14 03:34:33;;;;;;;25.53;16.87;;;;;;;;;;764746;183;630663;-63
2022/04/14 03:36:58;;;;;;;23.17;16.07;;;;;;;;;;760319;183;919285;-63
2022/04/14 03:39:24;;;;;;;23.67;16.80;;;;;;;;;;761453;183;919091;-63
2022/04/14 03:41:50;;;;;;;20.53;16.07;;;;;;;;;;761772;184;918567;-63
2022/04/14 03:44:16;;;;;;;25.20;17.63;;;;;;;;;;756098;183;919318;-63
2022/04/14 03:46:42;;;;;;;22.43;15.67;;;;;;;;;;759789;183;918074;-64
2022/04/14 03:49:09;;;;;;;24.92;17.60;;;;;;;;;;760850;183;918818;-62
2022/04/14 03:51:34;;;;;;;23.43;17.30;;;;;;;;;;754262;184;918566;-64
2022/04/14 03:54:00;;;;;;;26.07;18.03;;;;;;;;;;760187;183;919867;-64
2022/04/14 03:56:26;;;;;;;27.90;17.90;;;;;;;;;;759073;183;1024868;-64
2022/04/14 03:58:52;;;;;;;25.63;17.80;;;;;;;;;;762622;183;917559;-64
2022/04/14 04:01:18;;;;;;;27.37;16.60;;;;;;;;;;753805;184;919692;-63
2022/04/14 04:03:44;;;;;;;23.57;16.43;;;;;;;;;;751562;184;917662;-63
2022/04/14 04:06:09;;;;;;;26.70;17.20;;;;;;;;;;763537;184;624689;-64
2022/04/14 04:08:35;;;;;;;26.37;16.97;;;;;;;;;;752868;183;918992;-64
2022/04/14 04:11:01;;;;;;;22.93;17.77;;;;;;;;;;754332;184;918585;-64
2022/04/14 04:13:27;;;;;;;27.85;17.70;;;;;;;;;;760382;183;970925;-64
2022/04/14 04:15:53;;;;;;;27.53;18.40;;;;;;;;;;757603;184;917483;-64
2022/04/14 04:18:19;;;;;;;25.50;17.97;;;;;;;;;;756853;184;814322;-64
2022/04/14 04:20:45;;;;;;;24.50;16.40;;;;;;;;;;754047;184;923158;-63
2022/04/14 04:23:10;;;;;;;28.13;19.17;;;;;;;;;;762471;183;629776;-63
2022/04/14 04:25:36;;;;;;;29.83;20.50;;;;;;;;;;768482;183;626482;-63
2022/04/14 04:28:02;;;;;;;27.30;18.83;;;;;;;;;;755689;183;619266;-63
2022/04/14 04:30:28;;;;;;;27.40;18.90;;;;;;;;;;762069;184;627987;-64
2022/04/14 04:32:54;;;;;;;35.23;18.00;;;;;;;;;;758738;182;629352;-64
2022/04/14 04:35:20;;;;;;;28.90;20.90;;;;;;;;;;761830;182;625388;-64
2022/04/14 04:37:46;;;;;;;29.63;18.93;;;;;;;;;;763295;182;637955;-63
2022/04/14 04:40:11;;;;;;;29.90;18.83;;;;;;;;;;759718;182;919104;-64
2022/04/14 04:42:37;;;;;;;31.52;19.30;;;;;;;;;;756743;184;1015304;-62
2022/04/14 04:45:03;;;;;;;31.40;19.23;;;;;;;;;;757868;184;919991;-64
2022/04/14 04:47:29;;;;;;;28.40;18.50;;;;;;;;;;746308;184;911774;-63
2022/04/14 04:49:55;;;;;;;28.17;19.20;;;;;;;;;;751748;184;920002;-64
2022/04/14 04:52:21;;;;;;;29.50;20.03;;;;;;;;;;754350;183;919404;-64
2022/04/14 04:54:47;;;;;;;33.40;20.03;;;;;;;;;;748525;183;918582;-65
2022/04/14 04:57:13;;;;;;;31.17;19.40;;;;;;;;;;751328;183;918927;-63
2022/04/14 04:59:38;;;;;;;31.87;21.17;;;;;;;;;;754406;183;918453;-65
2022/04/14 05:02:05;;;;;;;31.30;21.80;;;;;;;;;;755306;184;918998;-65
2022/04/14 05:04:31;;;;;;;29.50;21.23;;;;;;;;;;740041;189;918481;-65
2022/04/14 05:06:56;;;;;;;43.83;21.00;;;;;;;;;;723312;191;1022828;-65
2022/04/14 05:09:23;;;;;;;37.33;24.00;;;;;;;;;;752476;184;918569;-63
2022/04/14 05:11:48;;;;;;;39.63;24.23;;;;;;;;;;760805;183;918407;-65
2022/04/14 05:14:14;;;;;;;36.13;24.17;;;;;;;;;;752575;185;921224;-63
2022/04/14 05:16:40;;;;;;;43.80;23.17;;;;;;;;;;749816;184;919421;-62
2022/04/14 05:19:06;;;;;;;44.80;27.77;;;;;;;;;;762714;184;919278;-64
2022/04/14 05:21:31;;;;;;;51.03;26.23;;;;;;;;;;752399;184;919188;-64
2022/04/14 05:23:57;;;;;;;46.27;28.97;;;;;;;;;;759399;184;918100;-65
2022/04/14 05:26:23;;;;;;;54.35;30.45;;;;;;;;;;757845;184;916476;-64
2022/04/14 05:28:49;;;;;;;49.63;30.13;;;;;;;;;;757375;183;917174;-64
2022/04/14 05:31:15;;;;;;;58.70;34.07;;;;;;;;;;756535;184;918416;-64
2022/04/14 05:33:41;;;;;;;71.73;36.13;;;;;;;;;;764252;183;919085;-65
2022/04/14 05:36:07;;;;;;;68.93;39.83;;;;;;;;;;754413;184;1020830;-64
2022/04/14 05:38:32;;;;;;;63.93;36.00;;;;;;;;;;752602;183;920825;-64
2022/04/14 05:40:58;;;;;;;60.00;37.37;;;;;;;;;;755696;184;1019457;-64
2022/04/14 05:43:27;;;;;;;65.83;38.17;;;;;;;;;;762652;182;904053;-65
2022/04/14 05:45:51;;;;;;;70.23;38.00;;;;;;;;;;762676;183;917539;-64
2022/04/14 05:48:17;;;;;;;70.20;40.57;;;;;;;;;;759025;183;920394;-63
2022/04/14 05:50:42;;;;;;;70.62;40.38;;;;;;;;;;759516;183;919181;-64
2022/04/14 05:53:08;;;;;;;64.37;41.67;;;;;;;;;;761788;183;918081;-65
2022/04/14 05:55:35;;;;;;;53.27;33.73;;;;;;;;;;759014;183;917913;-64
2022/04/14 05:58:00;;;;;;;51.90;33.50;;;;;;;;;;762626;184;920056;-64
2022/04/14 06:00:26;;;;;;;56.17;29.25;;;;;;;;;;755868;184;918360;-63
2022/04/14 06:02:52;;;;;;;38.30;25.87;;;;;;;;;;756996;184;918806;-64
2022/04/14 06:05:18;;;;;;;48.33;32.43;;;;;;;;;;752771;183;919036;-66
2022/04/14 06:07:44;;;;;;;42.03;31.90;;;;;;;;;;750518;184;916937;-64
2022/04/14 06:10:10;;;;;;;32.97;23.87;;;;;;;;;;752150;183;919439;-64
2022/04/14 06:12:36;;;;;;;35.37;23.33;;;;;;;;;;758094;184;921351;-64
2022/04/14 06:15:02;;;;;;;31.90;23.93;;;;;;;;;;758247;184;919062;-64
2022/04/14 06:17:28;;;;;;;25.73;19.50;;;;;;;;;;758208;184;918593;-64
2022/04/14 06:19:55;;;;;;;30.90;18.73;;;;;;;;;;756796;183;944615;-64
2022/04/14 06:22:19;;;;;;;30.20;19.30;;;;;;;;;;764078;183;917944;-65
2022/04/14 06:24:45;;;;;;;23.73;17.00;;;;;;;;;;759046;184;919464;-65
2022/04/14 06:27:11;;;;;;;29.37;19.20;;;;;;;;;;756667;184;920271;-65
2022/04/14 06:29:37;;;;;;;36.97;21.77;;;;;;;;;;755076;184;1020768;-65
2022/04/14 06:32:03;;;;;;;27.13;18.97;;;;;;;;;;752050;183;921683;-65
2022/04/14 06:34:28;;;;;;;31.80;24.27;;;;;;;;;;750109;183;920426;-65
2022/04/14 06:36:54;;;;;;;30.70;17.37;;;;;;;;;;745657;184;919300;-64
2022/04/14 06:39:20;;;;;;;26.62;17.23;;;;;;;;;;763841;183;918946;-65
2022/04/14 06:41:46;;;;;;;24.60;17.67;;;;;;;;;;758893;184;913430;-65
2022/04/14 06:44:13;;;;;;;27.87;18.87;;;;;;;;;;760744;183;920244;-66
2022/04/14 06:46:39;;;;;;;28.47;17.00;;;;;;;;;;764027;184;921509;-66
2022/04/14 06:49:05;;;;;;;25.73;16.40;;;;;;;;;;759075;184;919444;-66
2022/04/14 06:51:30;;;;;;;23.50;15.10;;;;;;;;;;752589;184;918575;-66
2022/04/14 06:53:56;;;;;;;36.43;17.10;;;;;;;;;;749591;186;913625;-66
2022/04/14 06:56:22;;;;;;;22.73;15.20;;;;;;;;;;752404;184;915005;-68
2022/04/14 06:58:48;;;;;;;18.57;10.57;;;;;;;;;;744701;185;915208;-66
2022/04/14 07:01:14;;;;;;;16.13;10.70;;;;;;;;;;757410;183;914065;-67
2022/04/14 07:03:39;;;;;;;16.10;10.10;;;;;;;;;;759001;184;911855;-67
2022/04/14 07:06:05;;;;;;;29.53;12.83;;;;;;;;;;756775;183;1021460;-65
2022/04/14 07:08:33;;;;;;;18.85;10.52;;;;;;;;;;760240;183;1021613;-65
2022/04/14 07:10:59;;;;;;;18.47;10.57;;;;;;;;;;766327;183;1020963;-65
2022/04/14 07:13:23;;;;;;;21.70;11.93;;;;;;;;;;763311;183;918979;-65
2022/04/14 07:15:49;;;;;;;19.70;11.43;;;;;;;;;;757184;184;919217;-65
2022/04/14 07:18:15;;;;;;;20.03;10.23;;;;;;;;;;760523;183;919692;-65
2022/04/14 07:20:40;;;;;;;21.73;10.20;;;;;;;;;;756540;184;918879;-65
2022/04/14 07:23:06;;;;;;;19.63;10.20;;;;;;;;;;760017;183;919769;-65
2022/04/14 07:25:33;;;;;;;17.53;10.07;;;;;;;;;;758864;183;918711;-65
2022/04/14 07:27:59;;;;;;;18.53;9.50;;;;;;;;;;763765;184;919413;-65
2022/04/14 07:30:24;;;;;;;15.33;9.17;;;;;;;;;;752778;184;918719;-65
2022/04/14 07:32:50;;;;;;;11.20;7.77;;;;;;;;;;757143;184;923574;-66
2022/04/14 07:35:16;;;;;;;11.77;8.20;;;;;;;;;;764500;183;917998;-66
2022/04/14 07:37:42;;;;;;;13.70;7.40;;;;;;;;;;755195;183;919281;-67
2022/04/14 07:40:08;;;;;;;11.23;7.60;;;;;;;;;;753305;184;919349;-66
2022/04/14 07:42:34;;;;;;;13.37;8.30;;;;;;;;;;758732;183;918053;-67
2022/04/14 07:45:00;;;;;;;11.03;7.93;;;;;;;;;;749734;184;918891;-67
2022/04/14 07:47:26;;;;;;;20.03;9.90;;;;;;;;;;756308;183;924044;-66
2022/04/14 07:49:52;;;;;;;14.60;7.20;;;;;;;;;;754942;181;919104;-66
2022/04/14 07:52:17;;;;;;;11.80;7.12;;;;;;;;;;758037;183;918350;-67
2022/04/14 07:54:44;;;;;;;12.90;6.70;;;;;;;;;;750733;184;918977;-67
2022/04/14 07:57:09;;;;;;;13.57;7.00;;;;;;;;;;757468;184;919369;-67
2022/04/14 07:59:35;;;;;;;12.17;8.00;;;;;;;;;;763656;184;919324;-68
2022/04/14 08:02:01;;;;;;;13.00;7.33;;;;;;;;;;758846;184;919068;-68
2022/04/14 08:04:27;;;;;;;12.47;7.67;;;;;;;;;;761788;183;919463;-67
2022/04/14 08:06:52;;;;;;;13.67;7.83;;;;;;;;;;764229;183;918480;-66
2022/04/14 08:09:18;;;;;;;11.93;7.73;;;;;;;;;;758827;182;919210;-66
2022/04/14 08:11:45;;;;;;;12.80;8.00;;;;;;;;;;760074;182;918954;-67
2022/04/14 08:14:10;;;;;;;13.20;7.63;;;;;;;;;;755315;182;919748;-68
2022/04/14 08:16:36;;;;;;;11.40;6.97;;;;;;;;;;767607;182;619302;-68
2022/04/14 08:19:02;;;;;;;11.20;6.40;;;;;;;;;;763183;184;629907;-68
2022/04/14 08:21:28;;;;;;;12.48;6.43;;;;;;;;;;760517;184;1004232;-68
2022/04/14 08:23:53;;;;;;;13.13;6.40;;;;;;;;;;768464;183;625312;-68
2022/04/14 08:26:19;;;;;;;13.73;6.93;;;;;;;;;;764604;184;631601;-68
2022/04/14 08:28:45;;;;;;;12.10;6.93;;;;;;;;;;756835;184;919305;-68
2022/04/14 08:31:11;;;;;;;20.17;7.70;;;;;;;;;;755659;184;917629;-71
2022/04/14 08:33:37;;;;;;;19.60;7.50;;;;;;;;;;759820;183;918976;-70
2022/04/14 08:36:03;;;;;;;11.70;8.17;;;;;;;;;;752471;184;919083;-67
2022/04/14 08:38:29;;;;;;;10.27;6.00;;;;;;;;;;758842;184;915109;-68
2022/04/14 08:40:54;;;;;;;9.10;6.70;;;;;;;;;;749251;184;916286;-68
2022/04/14 08:43:20;;;;;;;10.30;7.00;;;;;;;;;;753990;183;915742;-71
2022/04/14 08:45:47;;;;;;;14.80;7.30;;;;;;;;;;750073;185;915229;-68
2022/04/14 08:48:13;;;;;;;10.63;7.40;;;;;;;;;;756824;184;919236;-67
2022/04/14 08:50:39;;;;;;;12.83;6.93;;;;;;;;;;752498;184;914560;-67
2022/04/14 08:53:05;;;;;;;11.37;7.23;;;;;;;;;;758209;184;918826;-71
2022/04/14 08:55:31;;;;;;;9.65;6.47;;;;;;;;;;763093;183;919517;-71
2022/04/14 08:57:57;;;;;;;13.27;6.43;;;;;;;;;;761044;183;919311;-68
2022/04/14 09:00:23;;;;;;;8.93;6.63;;;;;;;;;;755414;184;919388;-68
2022/04/14 09:02:50;;;;;;;8.87;6.33;;;;;;;;;;760226;184;625178;-68
2022/04/14 09:05:17;;;;;;;11.60;6.00;;;;;;;;;;759573;183;918766;-67
2022/04/14 09:07:40;;;;;;;11.00;6.70;;;;;;;;;;757773;184;919133;-68
2022/04/14 09:10:06;;;;;;;11.50;7.03;;;;;;;;;;758183;184;623979;-73
2022/04/14 09:12:32;;;;;;;7.37;5.37;;;;;;;;;;756299;184;919257;-68
2022/04/14 09:14:58;;;;;;;9.40;5.87;;;;;;;;;;755286;183;918964;-68
2022/04/14 09:17:24;;;;;;;10.20;6.13;;;;;;;;;;758133;184;638095;-68
2022/04/14 09:19:50;;;;;;;11.70;6.90;;;;;;;;;;767970;180;620211;-69
2022/04/14 09:22:16;;;;;;;8.50;6.30;;;;;;;;;;753602;184;628669;-70
2022/04/14 09:24:47;;;;;;;10.10;6.27;;;;;;;;;;763965;182;626758;-69
2022/04/14 09:27:19;;;;;;;9.63;6.10;;;;;;;;;;757591;182;634295;-68
2022/04/14 09:29:46;;;;;;;9.10;6.47;;;;;;;;;;763332;183;631189;-71
2022/04/14 09:32:12;;;;;;;11.77;7.30;;;;;;;;;;755618;184;918095;-68
2022/04/14 09:34:41;;;;;;;9.63;6.50;;;;;;;;;;755062;183;918254;-69
2022/04/14 09:37:07;;;;;;;11.45;6.80;;;;;;;;;;753882;184;936473;-70
2022/04/14 09:39:50;;;;;;;9.10;5.80;;;;;;;;;;759414;184;1019635;-68
2022/04/14 09:42:16;;;;;;;11.90;6.50;;;;;;;;;;763552;183;917038;-72
2022/04/14 09:44:41;;;;;;;9.60;5.97;;;;;;;;;;755854;184;920727;-71
2022/04/14 09:47:07;;;;;;;11.75;7.20;;;;;;;;;;757048;183;915153;-70
2022/04/14 09:49:33;;;;;;;9.67;6.37;;;;;;;;;;764633;184;916076;-71
2022/04/14 09:51:59;;;;;;;13.17;7.43;;;;;;;;;;762191;182;918502;-73
2022/04/14 09:54:27;;;;;;;15.47;6.03;;;;;;;;;;756199;183;918876;-73
2022/04/14 09:56:54;;;;;;;9.47;5.93;;;;;;;;;;762572;183;631347;-72
2022/04/14 09:59:21;;;;;;;12.75;5.93;;;;;;;;;;755532;183;832386;-73
2022/04/14 10:01:47;;;;;;;13.37;6.40;;;;;;;;;;762502;183;814476;-72
2022/04/14 10:04:18;;;;;;;15.63;5.77;;;;;;;;;;750569;184;918065;-71
2022/04/14 10:06:44;;;;;;;9.90;6.43;;;;;;;;;;761927;184;614007;-73
2022/04/14 10:09:10;;;;;;;7.93;5.80;;;;;;;;;;748094;185;919345;-72
2022/04/14 10:11:37;;;;;;;9.57;5.67;;;;;;;;;;750650;186;918335;-71
2022/04/14 10:14:08;;;;;;;10.67;5.83;;;;;;;;;;764454;183;918282;-71
2022/04/14 10:16:33;;;;;;;7.80;4.80;;;;;;;;;;761189;184;815430;-71
2022/04/14 10:19:00;;;;;;;21.10;5.70;;;;;;;;;;760827;183;816217;-72
2022/04/14 10:21:25;;;;;;;13.27;6.20;;;;;;;;;;760898;184;654016;-72
2022/04/14 10:23:51;;;;;;;14.17;6.20;;;;;;;;;;758261;184;916971;-72
2022/04/14 10:26:17;;;;;;;13.03;7.07;;;;;;;;;;759861;183;817536;-71
2022/04/14 10:28:43;;;;;;;7.70;5.37;;;;;;;;;;758046;184;816283;-73
2022/04/14 10:31:08;;;;;;;10.27;5.03;;;;;;;;;;760016;182;913410;-70
2022/04/14 10:33:34;;;;;;;6.75;4.85;;;;;;;;;;750430;183;914308;-70
2022/04/14 10:36:01;;;;;;;9.30;5.67;;;;;;;;;;759979;184;908879;-72
2022/04/14 10:38:28;;;;;;;10.97;5.67;;;;;;;;;;760386;182;917679;-71
2022/04/14 10:40:55;;;;;;;7.33;4.67;;;;;;;;;;766549;183;915893;-73
2022/04/14 10:43:21;;;;;;;7.10;4.80;;;;;;;;;;760878;183;914692;-72
2022/04/14 10:45:47;;;;;;;10.93;5.23;;;;;;;;;;764269;183;813060;-75
2022/04/14 10:48:13;;;;;;;6.70;4.37;;;;;;;;;;764418;184;911238;-72
2022/04/14 10:50:39;;;;;;;5.90;4.50;;;;;;;;;;759635;184;897617;-72
2022/04/14 10:53:06;;;;;;;9.10;5.60;;;;;;;;;;756947;183;910688;-72
2022/04/14 10:55:35;;;;;;;6.73;4.80;;;;;;;;;;754128;184;1013147;-71
2022/04/14 10:58:00;;;;;;;7.60;4.70;;;;;;;;;;765852;184;705318;-71
2022/04/14 11:00:36;;;;;;;7.93;4.83;;;;;;;;;;759146;180;816953;-71
2022/04/14 11:03:01;;;;;;;9.40;4.40;;;;;;;;;;757400;183;815013;-72
2022/04/14 11:05:42;;;;;;;9.17;4.40;;;;;;;;;;750015;184;918989;-74
2022/04/14 11:08:13;;;;;;;15.70;5.17;;;;;;;;;;759172;183;919830;-70
2022/04/14 11:10:39;;;;;;;8.60;4.53;;;;;;;;;;752650;186;919537;-70
2022/04/14 11:13:05;;;;;;;7.20;4.40;;;;;;;;;;745016;187;918739;-72
2022/04/14 11:15:31;;;;;;;7.90;4.87;;;;;;;;;;756979;184;917539;-75
2022/04/14 11:18:04;;;;;;;12.57;4.67;;;;;;;;;;759677;183;918935;-74
2022/04/14 11:20:46;;;;;;;8.87;5.53;;;;;;;;;;751666;183;937273;-71
2022/04/14 11:23:12;;;;;;;10.52;4.75;;;;;;;;;;768550;183;918648;-70
2022/04/14 11:25:44;;;;;;;10.20;5.40;;;;;;;;;;764555;183;919147;-72
2022/04/14 11:28:25;;;;;;;7.80;4.80;;;;;;;;;;764547;183;918880;-70
2022/04/14 11:30:51;;;;;;;7.70;4.93;;;;;;;;;;758288;180;917922;-71
2022/04/14 11:33:22;;;;;;;7.90;4.90;;;;;;;;;;763886;184;916250;-72
2022/04/14 11:35:48;;;;;;;10.53;5.80;;;;;;;;;;766537;184;919408;-75
2022/04/14 11:38:20;;;;;;;7.20;5.00;;;;;;;;;;756430;184;918079;-74
2022/04/14 11:40:46;;;;;;;7.60;4.67;;;;;;;;;;754590;184;919370;-73
2022/04/14 11:43:11;;;;;;;9.00;5.60;;;;;;;;;;758874;183;895686;-72
2022/04/14 11:45:37;;;;;;;11.30;5.17;;;;;;;;;;761464;182;917664;-71
2022/04/14 11:48:05;;;;;;;8.10;5.03;;;;;;;;;;755179;182;919095;-72
2022/04/14 11:50:30;;;;;;;7.67;5.10;;;;;;;;;;754215;183;1624367;-72
2022/04/14 11:52:56;;;;;;;8.90;4.97;;;;;;;;;;753533;186;917701;-71
2022/04/14 11:55:27;;;;;;;10.67;4.83;;;;;;;;;;757028;184;919136;-71
2022/04/14 11:57:53;;;;;;;6.67;3.67;;;;;;;;;;757209;184;919630;-71
2022/04/14 12:00:20;;;;;;;9.00;5.00;;;;;;;;;;747280;187;993849;-73
2022/04/14 12:02:45;;;;;;;9.80;4.90;;;;;;;;;;747032;184;912275;-72
2022/04/14 12:05:11;;;;;;;6.37;4.70;;;;;;;;;;758969;184;921560;-74
2022/04/14 12:07:37;;;;;;;6.93;4.03;;;;;;;;;;769327;183;918947;-75
2022/04/14 12:10:03;;;;;;;7.40;4.40;;;;;;;;;;767994;183;919124;-71
2022/04/14 12:12:30;;;;;;;5.60;4.30;;;;;;;;;;757533;183;911179;-71
2022/04/14 12:14:57;;;;;;;6.70;4.63;;;;;;;;;;751048;184;919328;-69
2022/04/14 12:17:22;;;;;;;9.47;5.20;;;;;;;;;;754049;185;918615;-74
2022/04/14 12:19:51;;;;;;;9.30;5.77;;;;;;;;;;751126;185;918424;-73
2022/04/14 12:22:16;;;;;;;6.30;3.93;;;;;;;;;;759093;185;919233;-74
2022/04/14 12:24:48;;;;;;;7.20;4.83;;;;;;;;;;763565;184;918228;-70
2022/04/14 12:27:14;;;;;;;9.30;5.17;;;;;;;;;;764375;184;815068;-72
2022/04/14 12:29:42;;;;;;;11.13;4.47;;;;;;;;;;760182;184;817392;-72
2022/04/14 12:32:09;;;;;;;6.70;3.87;;;;;;;;;;761322;183;920811;-76
2022/04/14 12:34:36;;;;;;;9.40;5.50;;;;;;;;;;762393;183;918933;-74
2022/04/14 12:37:07;;;;;;;6.80;4.20;;;;;;;;;;753017;185;905824;-70
2022/04/14 12:39:32;;;;;;;8.40;5.90;;;;;;;;;;750029;185;917469;-75
2022/04/14 12:41:58;;;;;;;8.50;5.30;;;;;;;;;;751462;184;918406;-72
2022/04/14 12:44:23;;;;;;;6.72;4.65;;;;;;;;;;762444;184;817137;-78
2022/04/14 12:46:49;;;;;;;9.83;5.50;;;;;;;;;;748906;183;919208;-72
2022/04/14 12:49:17;;;;;;;9.77;4.97;;;;;;;;;;753779;184;826080;-74
2022/04/14 12:51:41;;;;;;;7.27;5.20;;;;;;;;;;754613;185;918550;-72
2022/04/14 12:54:07;;;;;;;11.23;6.10;;;;;;;;;;757723;182;918898;-75
2022/04/14 12:56:33;;;;;;;7.95;5.18;;;;;;;;;;758837;184;919402;-71
2022/04/14 12:59:04;;;;;;;10.13;5.40;;;;;;;;;;761435;183;911308;-71
2022/04/14 13:01:30;;;;;;;9.80;6.07;;;;;;;;;;767328;182;909005;-72
2022/04/14 13:03:56;;;;;;;10.27;5.43;;;;;;;;;;751169;183;918969;-70
2022/04/14 13:06:22;;;;;;;9.70;5.37;;;;;;;;;;755369;183;919357;-68
2022/04/14 13:08:47;;;;;;;8.87;6.67;;;;;;;;;;759562;183;910104;-70
2022/04/14 13:11:19;;;;;;;8.40;5.53;;;;;;;;;;755079;183;918535;-68
2022/04/14 13:13:45;;;;;;;13.17;6.27;;;;;;;;;;748418;184;919353;-71
2022/04/14 13:16:11;;;;;;;7.77;5.50;;;;;;;;;;753955;184;816019;-70
2022/04/14 13:18:37;;;;;;;9.13;5.70;;;;;;;;;;756562;184;922644;-73
2022/04/14 13:21:02;;;;;;;8.83;5.83;;;;;;;;;;754264;183;814984;-70
2022/04/14 13:23:28;;;;;;;9.47;6.57;;;;;;;;;;760098;183;912183;-72
2022/04/14 13:25:55;;;;;;;9.20;5.57;;;;;;;;;;762582;183;914471;-75
2022/04/14 13:28:20;;;;;;;10.67;6.30;;;;;;;;;;757729;183;923452;-73
2022/04/14 13:30:46;;;;;;;13.13;7.67;;;;;;;;;;759165;183;921227;-71
2022/04/14 13:33:12;;;;;;;12.93;6.90;;;;;;;;;;761017;184;917872;-70
2022/04/14 13:35:38;;;;;;;9.57;6.90;;;;;;;;;;758215;183;919864;-70
2022/04/14 13:38:04;;;;;;;11.47;5.80;;;;;;;;;;753159;183;918514;-76
2022/04/14 13:40:30;;;;;;;11.23;7.90;;;;;;;;;;751090;183;1022112;-71
2022/04/14 13:42:56;;;;;;;13.77;6.60;;;;;;;;;;761298;183;918575;-72
2022/04/14 13:45:23;;;;;;;11.03;7.20;;;;;;;;;;756667;184;918561;-71
2022/04/14 13:47:47;;;;;;;17.67;8.70;;;;;;;;;;751771;183;1106006;-76
2022/04/14 13:50:13;;;;;;;14.20;6.90;;;;;;;;;;762604;184;909886;-76
2022/04/14 13:52:39;;;;;;;12.83;6.80;;;;;;;;;;756432;184;911045;-71
2022/04/14 13:55:05;;;;;;;11.00;7.22;;;;;;;;;;754033;183;926676;-71
2022/04/14 13:57:31;;;;;;;12.87;7.80;;;;;;;;;;759962;184;919496;-71
2022/04/14 13:59:57;;;;;;;12.97;6.83;;;;;;;;;;759942;183;919355;-71
2022/04/14 14:02:23;;;;;;;15.90;7.10;;;;;;;;;;749523;183;919249;-70
2022/04/14 14:04:49;;;;;;;10.77;6.87;;;;;;;;;;754690;184;918961;-72